sensor_id;sensor_type;location;lat;lon;timestamp;pressure;altitude;pressure_sealevel;temperature;humidity
65359;BME280;52491;45.900;6.346;2023-05-21T00:02:08;93362.19;;;23.65;34.97
65359;BME280;52491;45.900;6.346;2023-05-21T00:04:39;93359.53;;;23.65;35.09
65359;BME280;52491;45.900;6.346;2023-05-21T00:07:07;93357.97;;;23.64;35.24
65359;BME280;52491;45.900;6.346;2023-05-21T00:09:34;93360.34;;;23.65;35.18
65359;BME280;52491;45.900;6.346;2023-05-21T00:11:59;93356.88;;;23.65;35.20
65359;BME280;52491;45.900;6.346;2023-05-21T00:14:25;93352.63;;;23.64;35.00
65359;BME280;52491;45.900;6.346;2023-05-21T00:16:51;93352.63;;;23.64;35.16
65359;BME280;52491;45.900;6.346;2023-05-21T00:19:16;93356.09;;;23.64;35.20
65359;BME280;52491;45.900;6.346;2023-05-21T00:21:42;93335.84;;;23.63;35.00
65359;BME280;52491;45.900;6.346;2023-05-21T00:24:10;93342.00;;;23.64;35.06
65359;BME280;52491;45.900;6.346;2023-05-21T00:26:35;93337.72;;;23.63;35.13
65359;BME280;52491;45.900;6.346;2023-05-21T00:29:01;93335.06;;;23.63;35.00
65359;BME280;52491;45.900;6.346;2023-05-21T00:31:27;93340.38;;;23.63;35.13
65359;BME280;52491;45.900;6.346;2023-05-21T00:33:52;93338.78;;;23.62;35.02
65359;BME280;52491;45.900;6.346;2023-05-21T00:36:18;93333.47;;;23.62;35.08
65359;BME280;52491;45.900;6.346;2023-05-21T00:38:48;93336.13;;;23.62;35.14
65359;BME280;52491;45.900;6.346;2023-05-21T00:41:14;93337.19;;;23.61;35.01
65359;BME280;52491;45.900;6.346;2023-05-21T00:43:41;93336.94;;;23.62;35.08
65359;BME280;52491;45.900;6.346;2023-05-21T00:46:18;93336.13;;;23.62;34.96
65359;BME280;52491;45.900;6.346;2023-05-21T00:48:46;93333.72;;;23.60;35.16
65359;BME280;52491;45.900;6.346;2023-05-21T00:51:15;93329.19;;;23.61;35.01
65359;BME280;52491;45.900;6.346;2023-05-21T00:53:43;93324.94;;;23.60;34.86
65359;BME280;52491;45.900;6.346;2023-05-21T00:56:10;93323.38;;;23.59;35.07
65359;BME280;52491;45.900;6.346;2023-05-21T00:58:36;93331.06;;;23.60;34.99
65359;BME280;52491;45.900;6.346;2023-05-21T01:01:03;93320.72;;;23.59;34.91
65359;BME280;52491;45.900;6.346;2023-05-21T01:03:34;93323.38;;;23.59;34.84
65359;BME280;52491;45.900;6.346;2023-05-21T01:06:07;93330.28;;;23.60;35.05
65359;BME280;52491;45.900;6.346;2023-05-21T01:08:34;93325.50;;;23.57;34.95
65359;BME280;52491;45.900;6.346;2023-05-21T01:11:01;93331.63;;;23.57;34.98
65359;BME280;52491;45.900;6.346;2023-05-21T01:13:28;93333.22;;;23.58;35.06
65359;BME280;52491;45.900;6.346;2023-05-21T01:15:54;93326.81;;;23.59;35.03
65359;BME280;52491;45.900;6.346;2023-05-21T01:18:22;93326.81;;;23.59;35.06
65359;BME280;52491;45.900;6.346;2023-05-21T01:20:48;93328.69;;;23.59;34.90
65359;BME280;52491;45.900;6.346;2023-05-21T01:23:18;93326.81;;;23.59;34.77
65359;BME280;52491;45.900;6.346;2023-05-21T01:25:45;93325.25;;;23.58;35.04
65359;BME280;52491;45.900;6.346;2023-05-21T01:28:12;93321.75;;;23.58;34.79
65359;BME280;52491;45.900;6.346;2023-05-21T01:30:39;93327.09;;;23.58;34.88
65359;BME280;52491;45.900;6.346;2023-05-21T01:33:16;93329.47;;;23.59;34.82
65359;BME280;52491;45.900;6.346;2023-05-21T01:35:49;93327.63;;;23.60;35.01
65359;BME280;52491;45.900;6.346;2023-05-21T01:40:54;93324.72;;;23.56;34.85
65359;BME280;52491;45.900;6.346;2023-05-21T01:43:23;93330.03;;;23.56;34.95
65359;BME280;52491;45.900;6.346;2023-05-21T01:45:53;93323.38;;;23.59;34.83
65359;BME280;52491;45.900;6.346;2023-05-21T01:48:20;93321.75;;;23.58;34.91
65359;BME280;52491;45.900;6.346;2023-05-21T01:50:48;93319.09;;;23.58;34.88
65359;BME280;52491;45.900;6.346;2023-05-21T01:53:14;93320.19;;;23.57;34.91
65359;BME280;52491;45.900;6.346;2023-05-21T01:55:41;93320.97;;;23.57;34.78
65359;BME280;52491;45.900;6.346;2023-05-21T01:58:08;93322.03;;;23.56;34.74
65359;BME280;52491;45.900;6.346;2023-05-21T02:00:34;93333.75;;;23.55;34.95
65359;BME280;52491;45.900;6.346;2023-05-21T02:03:01;93333.47;;;23.57;34.96
65359;BME280;52491;45.900;6.346;2023-05-21T02:05:27;93328.41;;;23.55;34.73
65359;BME280;52491;45.900;6.346;2023-05-21T02:07:53;93333.25;;;23.43;35.17
65359;BME280;52491;45.900;6.346;2023-05-21T02:10:19;93332.47;;;23.32;35.25
65359;BME280;52491;45.900;6.346;2023-05-21T02:12:45;93334.63;;;23.30;35.36
65359;BME280;52491;45.900;6.346;2023-05-21T02:15:10;93328.47;;;23.30;35.34
65359;BME280;52491;45.900;6.346;2023-05-21T02:17:38;93326.91;;;23.29;35.28
65359;BME280;52491;45.900;6.346;2023-05-21T02:20:05;93323.16;;;23.30;35.36
65359;BME280;52491;45.900;6.346;2023-05-21T02:22:40;93330.09;;;23.31;35.31
65359;BME280;52491;45.900;6.346;2023-05-21T02:25:07;93332.69;;;23.46;34.89
65359;BME280;52491;45.900;6.346;2023-05-21T02:27:34;93326.31;;;23.52;34.77
65359;BME280;52491;45.900;6.346;2023-05-21T02:30:05;93328.69;;;23.54;34.82
65359;BME280;52491;45.900;6.346;2023-05-21T02:32:32;93327.91;;;23.53;34.77
65359;BME280;52491;45.900;6.346;2023-05-21T02:34:58;93331.38;;;23.54;34.93
65359;BME280;52491;45.900;6.346;2023-05-21T02:37:25;93328.69;;;23.54;34.69
65359;BME280;52491;45.900;6.346;2023-05-21T02:39:54;93323.38;;;23.54;34.63
65359;BME280;52491;45.900;6.346;2023-05-21T02:42:23;93323.38;;;23.54;34.64
65359;BME280;52491;45.900;6.346;2023-05-21T02:44:49;93316.47;;;23.53;34.65
65359;BME280;52491;45.900;6.346;2023-05-21T02:47:16;93315.41;;;23.54;34.68
65359;BME280;52491;45.900;6.346;2023-05-21T02:49:41;93315.41;;;23.54;34.80
65359;BME280;52491;45.900;6.346;2023-05-21T02:52:07;93313.81;;;23.53;34.80
65359;BME280;52491;45.900;6.346;2023-05-21T02:54:33;93313.00;;;23.52;34.66
65359;BME280;52491;45.900;6.346;2023-05-21T02:56:58;93318.31;;;23.52;34.70
65359;BME280;52491;45.900;6.346;2023-05-21T02:59:24;93314.06;;;23.51;34.85
65359;BME280;52491;45.900;6.346;2023-05-21T03:01:49;93318.59;;;23.51;34.63
65359;BME280;52491;45.900;6.346;2023-05-21T03:04:15;93315.94;;;23.51;34.84
65359;BME280;52491;45.900;6.346;2023-05-21T03:06:47;93310.34;;;23.52;34.70
65359;BME280;52491;45.900;6.346;2023-05-21T03:09:12;93315.66;;;23.52;34.55
65359;BME280;52491;45.900;6.346;2023-05-21T03:11:38;93309.84;;;23.50;34.84
65359;BME280;52491;45.900;6.346;2023-05-21T03:14:04;93312.78;;;23.33;34.93
65359;BME280;52491;45.900;6.346;2023-05-21T03:16:30;93311.72;;;23.24;35.24
65359;BME280;52491;45.900;6.346;2023-05-21T03:18:59;93317.34;;;23.22;35.15
65359;BME280;52491;45.900;6.346;2023-05-21T03:21:25;93314.69;;;23.22;35.38
65359;BME280;52491;45.900;6.346;2023-05-21T03:23:50;93316.50;;;23.27;35.15
65359;BME280;52491;45.900;6.346;2023-05-21T03:26:17;93316.25;;;23.29;35.13
65359;BME280;52491;45.900;6.346;2023-05-21T03:28:42;93315.72;;;23.32;35.04
65359;BME280;52491;45.900;6.346;2023-05-21T03:31:08;93310.94;;;23.29;35.14
65359;BME280;52491;45.900;6.346;2023-05-21T03:33:34;93316.25;;;23.29;35.09
65359;BME280;52491;45.900;6.346;2023-05-21T03:35:59;93317.03;;;23.29;35.10
65359;BME280;52491;45.900;6.346;2023-05-21T03:38:25;93315.47;;;23.28;35.12
65359;BME280;52491;45.900;6.346;2023-05-21T03:40:50;93322.38;;;23.29;35.20
65359;BME280;52491;45.900;6.346;2023-05-21T03:43:16;93321.03;;;23.27;35.25
65359;BME280;52491;45.900;6.346;2023-05-21T03:45:41;93331.97;;;23.25;35.14
65359;BME280;52491;45.900;6.346;2023-05-21T03:48:07;93321.31;;;23.25;34.96
65359;BME280;52491;45.900;6.346;2023-05-21T03:50:32;93323.16;;;23.24;35.32
65359;BME280;52491;45.900;6.346;2023-05-21T03:52:58;93322.41;;;23.09;35.39
65359;BME280;52491;45.900;6.346;2023-05-21T03:55:24;93327.47;;;23.05;35.40
65359;BME280;52491;45.900;6.346;2023-05-21T03:57:49;93330.38;;;23.04;35.57
65359;BME280;52491;45.900;6.346;2023-05-21T04:00:15;93323.72;;;23.06;35.49
65359;BME280;52491;45.900;6.346;2023-05-21T04:02:40;93335.16;;;23.07;35.46
65359;BME280;52491;45.900;6.346;2023-05-21T04:05:06;93326.66;;;23.05;35.51
65359;BME280;52491;45.900;6.346;2023-05-21T04:07:32;93326.38;;;23.01;35.58
65359;BME280;52491;45.900;6.346;2023-05-21T04:09:57;93334.63;;;23.05;35.55
65359;BME280;52491;45.900;6.346;2023-05-21T04:12:23;93340.47;;;23.07;35.42
65359;BME280;52491;45.900;6.346;2023-05-21T04:14:49;93324.53;;;23.07;35.43
65359;BME280;52491;45.900;6.346;2023-05-21T04:17:14;93330.09;;;23.20;35.38
65359;BME280;52491;45.900;6.346;2023-05-21T04:19:40;93331.69;;;23.21;35.13
65359;BME280;52491;45.900;6.346;2023-05-21T04:22:06;93334.09;;;23.23;35.08
65359;BME280;52491;45.900;6.346;2023-05-21T04:24:31;93331.97;;;23.20;35.14
65359;BME280;52491;45.900;6.346;2023-05-21T04:26:57;93338.59;;;23.22;35.13
65359;BME280;52491;45.900;6.346;2023-05-21T04:29:26;93334.88;;;23.23;35.16
65359;BME280;52491;45.900;6.346;2023-05-21T04:31:52;93335.41;;;23.20;35.11
65359;BME280;52491;45.900;6.346;2023-05-21T04:34:17;93335.41;;;23.20;35.14
65359;BME280;52491;45.900;6.346;2023-05-21T04:36:45;93339.66;;;23.21;35.08
65359;BME280;52491;45.900;6.346;2023-05-21T04:39:11;93345.25;;;23.20;35.09
65359;BME280;52491;45.900;6.346;2023-05-21T04:41:37;93343.94;;;23.22;35.09
65359;BME280;52491;45.900;6.346;2023-05-21T04:44:05;93353.25;;;23.20;35.12
65359;BME280;52491;45.900;6.346;2023-05-21T04:46:31;93354.03;;;23.20;35.22
65359;BME280;52491;45.900;6.346;2023-05-21T04:48:59;93343.66;;;23.19;35.27
65359;BME280;52491;45.900;6.346;2023-05-21T04:51:27;93354.56;;;23.22;35.08
65359;BME280;52491;45.900;6.346;2023-05-21T04:53:53;93348.97;;;23.24;35.15
65359;BME280;52491;45.900;6.346;2023-05-21T04:56:18;93356.94;;;23.24;35.07
65359;BME280;52491;45.900;6.346;2023-05-21T04:58:45;93359.34;;;23.26;35.04
65359;BME280;52491;45.900;6.346;2023-05-21T05:01:13;93353.25;;;23.25;34.96
65359;BME280;52491;45.900;6.346;2023-05-21T05:03:38;93365.72;;;23.24;34.92
65359;BME280;52491;45.900;6.346;2023-05-21T05:06:04;93356.94;;;23.24;35.24
65359;BME280;52491;45.900;6.346;2023-05-21T05:08:31;93360.41;;;23.24;35.12
65359;BME280;52491;45.900;6.346;2023-05-21T05:10:58;93364.13;;;23.23;35.20
65359;BME280;52491;45.900;6.346;2023-05-21T05:13:24;93361.75;;;23.17;35.23
65359;BME280;52491;45.900;6.346;2023-05-21T05:15:50;93360.13;;;23.16;35.21
65359;BME280;52491;45.900;6.346;2023-05-21T05:18:18;93361.50;;;23.08;35.31
65359;BME280;52491;45.900;6.346;2023-05-21T05:20:44;93362.53;;;23.17;35.35
65359;BME280;52491;45.900;6.346;2023-05-21T05:23:11;93358.28;;;23.06;35.44
65359;BME280;52491;45.900;6.346;2023-05-21T05:25:36;93359.34;;;23.15;35.17
65359;BME280;52491;45.900;6.346;2023-05-21T05:28:02;93355.63;;;23.21;35.14
65359;BME280;52491;45.900;6.346;2023-05-21T05:30:28;93355.34;;;23.23;35.14
65359;BME280;52491;45.900;6.346;2023-05-21T05:32:53;93356.94;;;23.24;35.15
65359;BME280;52491;45.900;6.346;2023-05-21T05:35:19;93356.69;;;23.26;35.12
65359;BME280;52491;45.900;6.346;2023-05-21T05:37:44;93364.66;;;23.26;34.87
65359;BME280;52491;45.900;6.346;2023-05-21T05:40:10;93362.81;;;23.26;34.93
65359;BME280;52491;45.900;6.346;2023-05-21T05:42:36;93365.47;;;23.26;34.97
65359;BME280;52491;45.900;6.346;2023-05-21T05:45:02;93362.81;;;23.26;35.04
65359;BME280;52491;45.900;6.346;2023-05-21T05:47:27;93359.34;;;23.26;35.03
65359;BME280;52491;45.900;6.346;2023-05-21T05:49:53;93358.28;;;23.27;34.97
65359;BME280;52491;45.900;6.346;2023-05-21T05:52:18;93363.59;;;23.27;35.09
65359;BME280;52491;45.900;6.346;2023-05-21T05:54:44;93361.72;;;23.27;35.13
65359;BME280;52491;45.900;6.346;2023-05-21T05:57:10;93362.00;;;23.26;35.01
65359;BME280;52491;45.900;6.346;2023-05-21T05:59:35;93365.47;;;23.26;35.09
65359;BME280;52491;45.900;6.346;2023-05-21T06:02:01;93368.91;;;23.27;34.96
65359;BME280;52491;45.900;6.346;2023-05-21T06:04:26;93362.53;;;23.28;35.07
65359;BME280;52491;45.900;6.346;2023-05-21T06:06:57;93370.53;;;23.28;35.15
65359;BME280;52491;45.900;6.346;2023-05-21T06:09:24;93364.38;;;23.27;35.07
65359;BME280;52491;45.900;6.346;2023-05-21T06:11:50;93364.38;;;23.27;35.20
65359;BME280;52491;45.900;6.346;2023-05-21T06:14:16;93366.25;;;23.27;35.15
65359;BME280;52491;45.900;6.346;2023-05-21T06:16:41;93365.47;;;23.26;35.12
65359;BME280;52491;45.900;6.346;2023-05-21T06:19:07;93354.81;;;23.26;35.17
65359;BME280;52491;45.900;6.346;2023-05-21T06:21:33;93361.22;;;23.25;35.19
65359;BME280;52491;45.900;6.346;2023-05-21T06:23:58;93364.66;;;23.26;35.08
65359;BME280;52491;45.900;6.346;2023-05-21T06:26:24;93359.88;;;23.22;35.10
65359;BME280;52491;45.900;6.346;2023-05-21T06:28:49;93371.31;;;23.23;35.15
65359;BME280;52491;45.900;6.346;2023-05-21T06:31:15;93366.53;;;23.25;35.17
65359;BME280;52491;45.900;6.346;2023-05-21T06:33:41;93367.56;;;23.24;35.14
65359;BME280;52491;45.900;6.346;2023-05-21T06:36:06;93369.97;;;23.26;35.12
65359;BME280;52491;45.900;6.346;2023-05-21T06:38:32;93365.47;;;23.26;35.24
65359;BME280;52491;45.900;6.346;2023-05-21T06:40:58;93369.97;;;23.26;35.19
65359;BME280;52491;45.900;6.346;2023-05-21T06:43:24;93369.69;;;23.27;35.21
65359;BME280;52491;45.900;6.346;2023-05-21T06:45:49;93371.56;;;23.27;35.23
65359;BME280;52491;45.900;6.346;2023-05-21T06:48:15;93366.25;;;23.27;35.07
65359;BME280;52491;45.900;6.346;2023-05-21T06:50:44;93367.31;;;23.26;35.54
65359;BME280;52491;45.900;6.346;2023-05-21T06:53:09;93366.78;;;23.23;35.13
65359;BME280;52491;45.900;6.346;2023-05-21T06:55:35;93365.47;;;23.26;35.21
65359;BME280;52491;45.900;6.346;2023-05-21T06:58:01;93358.81;;;23.23;35.27
65359;BME280;52491;45.900;6.346;2023-05-21T07:00:26;93351.13;;;23.22;35.13
65359;BME280;52491;45.900;6.346;2023-05-21T07:02:52;93355.91;;;23.25;35.37
65359;BME280;52491;45.900;6.346;2023-05-21T07:05:18;93349.50;;;23.26;35.35
65359;BME280;52491;45.900;6.346;2023-05-21T07:07:44;93353.25;;;23.25;35.23
65359;BME280;52491;45.900;6.346;2023-05-21T07:10:09;93353.50;;;23.23;35.19
65359;BME280;52491;45.900;6.346;2023-05-21T07:12:35;93353.78;;;23.22;35.28
65359;BME280;52491;45.900;6.346;2023-05-21T07:15:00;93360.69;;;23.23;35.33
65359;BME280;52491;45.900;6.346;2023-05-21T07:17:26;93354.28;;;23.24;35.35
65359;BME280;52491;45.900;6.346;2023-05-21T07:19:52;93341.53;;;23.26;35.31
65359;BME280;52491;45.900;6.346;2023-05-21T07:22:17;93344.72;;;23.28;35.24
65359;BME280;52491;45.900;6.346;2023-05-21T07:24:43;93348.97;;;23.24;35.26
65359;BME280;52491;45.900;6.346;2023-05-21T07:27:08;93341.53;;;23.26;35.37
65359;BME280;52491;45.900;6.346;2023-05-21T07:29:34;93344.97;;;23.27;35.25
65359;BME280;52491;45.900;6.346;2023-05-21T07:31:59;93340.97;;;23.24;35.43
65359;BME280;52491;45.900;6.346;2023-05-21T07:34:25;93337.53;;;23.23;35.28
65359;BME280;52491;45.900;6.346;2023-05-21T07:36:51;93336.47;;;23.24;35.47
65359;BME280;52491;45.900;6.346;2023-05-21T07:39:17;93328.22;;;23.26;35.57
65359;BME280;52491;45.900;6.346;2023-05-21T07:41:42;93331.44;;;23.23;35.38
65359;BME280;52491;45.900;6.346;2023-05-21T07:44:08;93331.44;;;23.23;35.55
65359;BME280;52491;45.900;6.346;2023-05-21T07:46:35;93329.56;;;23.23;35.35
65359;BME280;52491;45.900;6.346;2023-05-21T07:49:00;93334.09;;;23.23;35.47
65359;BME280;52491;45.900;6.346;2023-05-21T07:51:26;93336.75;;;23.23;35.47
65359;BME280;52491;45.900;6.346;2023-05-21T07:53:52;93339.13;;;23.30;35.31
65359;BME280;52491;45.900;6.346;2023-05-21T07:56:17;93334.31;;;23.37;35.33
65359;BME280;52491;45.900;6.346;2023-05-21T07:58:43;93333.78;;;23.40;35.19
65359;BME280;52491;45.900;6.346;2023-05-21T08:01:10;93340.69;;;23.41;35.27
65359;BME280;52491;45.900;6.346;2023-05-21T08:03:36;93336.97;;;23.42;35.18
65359;BME280;52491;45.900;6.346;2023-05-21T08:06:02;93338.84;;;23.41;35.13
65359;BME280;52491;45.900;6.346;2023-05-21T08:08:28;93344.97;;;23.42;35.25
65359;BME280;52491;45.900;6.346;2023-05-21T08:10:53;93340.69;;;23.41;35.07
65359;BME280;52491;45.900;6.346;2023-05-21T08:13:19;93336.19;;;23.41;35.26
65359;BME280;52491;45.900;6.346;2023-05-21T08:15:45;93351.34;;;23.41;35.30
65359;BME280;52491;45.900;6.346;2023-05-21T08:18:11;93342.31;;;23.42;35.26
65359;BME280;52491;45.900;6.346;2023-05-21T08:20:36;93346.84;;;23.41;35.32
65359;BME280;52491;45.900;6.346;2023-05-21T08:23:02;93353.19;;;23.40;35.25
65359;BME280;52491;45.900;6.346;2023-05-21T08:25:28;93352.94;;;23.42;35.29
65359;BME280;52491;45.900;6.346;2023-05-21T08:27:54;93359.06;;;23.42;35.15
65359;BME280;52491;45.900;6.346;2023-05-21T08:30:20;93348.16;;;23.29;35.56
65359;BME280;52491;45.900;6.346;2023-05-21T08:32:46;93359.88;;;23.22;35.62
65359;BME280;52491;45.900;6.346;2023-05-21T08:35:12;93359.09;;;23.22;35.68
65359;BME280;52491;45.900;6.346;2023-05-21T08:37:39;93362.78;;;23.21;35.71
65359;BME280;52491;45.900;6.346;2023-05-21T08:40:06;93361.22;;;23.20;35.88
65359;BME280;52491;45.900;6.346;2023-05-21T08:42:39;93358.28;;;23.21;35.97
65359;BME280;52491;45.900;6.346;2023-05-21T08:45:07;93363.34;;;23.23;36.01
65359;BME280;52491;45.900;6.346;2023-05-21T08:47:35;93364.13;;;23.23;35.85
65359;BME280;52491;45.900;6.346;2023-05-21T08:50:04;93370.25;;;23.24;35.96
65359;BME280;52491;45.900;6.346;2023-05-21T08:52:31;93367.56;;;23.24;35.87
65359;BME280;52491;45.900;6.346;2023-05-21T08:54:57;93369.44;;;23.23;35.96
65359;BME280;52491;45.900;6.346;2023-05-21T08:57:26;93372.91;;;23.24;35.84
65359;BME280;52491;45.900;6.346;2023-05-21T08:59:53;93364.91;;;23.24;35.96
65359;BME280;52491;45.900;6.346;2023-05-21T09:02:18;93363.06;;;23.24;35.95
65359;BME280;52491;45.900;6.346;2023-05-21T09:04:45;93358.81;;;23.23;36.07
65359;BME280;52491;45.900;6.346;2023-05-21T09:07:16;93370.25;;;23.24;36.18
65359;BME280;52491;45.900;6.346;2023-05-21T09:09:54;93368.38;;;23.24;36.24
65359;BME280;52491;45.900;6.346;2023-05-21T09:12:22;93373.97;;;23.23;36.27
65359;BME280;52491;45.900;6.346;2023-05-21T09:14:51;93372.91;;;23.24;36.25
65359;BME280;52491;45.900;6.346;2023-05-21T09:17:17;93372.91;;;23.24;36.30
65359;BME280;52491;45.900;6.346;2023-05-21T09:20:06;93376.34;;;23.24;36.17
65359;BME280;52491;45.900;6.346;2023-05-21T09:22:49;93372.91;;;23.24;36.38
65359;BME280;52491;45.900;6.346;2023-05-21T09:25:20;93380.88;;;23.24;36.39
65359;BME280;52491;45.900;6.346;2023-05-21T09:27:46;93374.75;;;23.23;36.39
65359;BME280;52491;45.900;6.346;2023-05-21T09:30:14;93380.63;;;23.26;36.28
65359;BME280;52491;45.900;6.346;2023-05-21T09:32:42;93373.44;;;23.26;36.40
65359;BME280;52491;45.900;6.346;2023-05-21T09:37:41;93375.56;;;23.24;36.36
65359;BME280;52491;45.900;6.346;2023-05-21T09:40:20;93375.81;;;23.53;35.72
65359;BME280;52491;45.900;6.346;2023-05-21T09:42:50;93367.00;;;23.58;35.55
65359;BME280;52491;45.900;6.346;2023-05-21T09:45:23;93366.75;;;23.59;35.41
65359;BME280;52491;45.900;6.346;2023-05-21T09:47:51;93361.13;;;23.61;35.07
65359;BME280;52491;45.900;6.346;2023-05-21T09:50:26;93368.31;;;23.60;35.50
65359;BME280;52491;45.900;6.346;2023-05-21T09:52:53;93362.75;;;23.62;35.39
65359;BME280;52491;45.900;6.346;2023-05-21T09:55:24;93361.66;;;23.63;35.32
65359;BME280;52491;45.900;6.346;2023-05-21T09:57:50;93360.88;;;23.62;35.52
65359;BME280;52491;45.900;6.346;2023-05-21T10:00:21;93359.53;;;23.65;35.26
65359;BME280;52491;45.900;6.346;2023-05-21T10:02:54;93358.47;;;23.81;34.97
65359;BME280;52491;45.900;6.346;2023-05-21T10:05:26;93358.19;;;23.83;34.93
65359;BME280;52491;45.900;6.346;2023-05-21T10:07:52;93354.47;;;23.84;35.08
65359;BME280;52491;45.900;6.346;2023-05-21T10:10:23;93352.59;;;23.84;34.93
65359;BME280;52491;45.900;6.346;2023-05-21T10:13:11;93355.22;;;23.95;34.81
65359;BME280;52491;45.900;6.346;2023-05-21T10:15:44;93357.38;;;23.87;35.13
65359;BME280;52491;45.900;6.346;2023-05-21T10:18:12;93350.47;;;23.86;35.19
65359;BME280;52491;45.900;6.346;2023-05-21T10:20:38;93347.81;;;23.86;34.95
65359;BME280;52491;45.900;6.346;2023-05-21T10:23:04;93351.25;;;23.87;35.02
65359;BME280;52491;45.900;6.346;2023-05-21T10:25:30;93351.50;;;23.85;35.09
65359;BME280;52491;45.900;6.346;2023-05-21T10:27:56;93347.50;;;23.88;35.04
65359;BME280;52491;45.900;6.346;2023-05-21T10:30:23;93339.81;;;23.86;35.30
65359;BME280;52491;45.900;6.346;2023-05-21T10:32:49;93346.47;;;23.89;35.00
65359;BME280;52491;45.900;6.346;2023-05-21T10:35:15;93343.81;;;23.89;35.18
65359;BME280;52491;45.900;6.346;2023-05-21T10:37:44;93343.50;;;23.90;34.84
65359;BME280;52491;45.900;6.346;2023-05-21T10:40:11;93337.41;;;23.90;35.07
65359;BME280;52491;45.900;6.346;2023-05-21T10:45:51;93324.88;;;23.90;35.29
65359;BME280;52491;45.900;6.346;2023-05-21T10:51:58;93330.19;;;23.90;35.13
65359;BME280;52491;45.900;6.346;2023-05-21T10:54:50;93334.44;;;23.92;35.30
65359;BME280;52491;45.900;6.346;2023-05-21T10:59:57;93326.75;;;23.90;35.09
65359;BME280;52491;45.900;6.346;2023-05-21T11:02:25;93331.28;;;23.89;35.28
65359;BME280;52491;45.900;6.346;2023-05-21T11:05:00;93322.19;;;24.01;34.88
65359;BME280;52491;45.900;6.346;2023-05-21T11:07:55;93321.09;;;24.02;35.10
65359;BME280;52491;45.900;6.346;2023-05-21T11:10:38;93319.53;;;24.01;35.16
65359;BME280;52491;45.900;6.346;2023-05-21T11:13:11;93316.31;;;23.99;35.16
65359;BME280;52491;45.900;6.346;2023-05-21T11:23:53;93306.44;;;24.04;35.62
65359;BME280;52491;45.900;6.346;2023-05-21T11:26:24;93318.19;;;24.03;35.61
65359;BME280;52491;45.900;6.346;2023-05-21T11:29:07;93314.69;;;24.08;35.56
65359;BME280;52491;45.900;6.346;2023-05-21T11:31:34;93309.34;;;24.08;35.90
65359;BME280;52491;45.900;6.346;2023-05-21T11:34:14;93301.88;;;24.10;35.98
65359;BME280;52491;45.900;6.346;2023-05-21T11:36:43;93302.16;;;24.08;36.14
65359;BME280;52491;45.900;6.346;2023-05-21T11:39:10;93294.97;;;24.09;36.08
65359;BME280;52491;45.900;6.346;2023-05-21T11:41:57;93297.09;;;24.12;36.19
65359;BME280;52491;45.900;6.346;2023-05-21T11:44:46;93293.34;;;24.13;35.99
65359;BME280;52491;45.900;6.346;2023-05-21T11:47:13;93294.44;;;24.12;35.92
65359;BME280;52491;45.900;6.346;2023-05-21T11:49:42;93291.81;;;24.02;36.43
65359;BME280;52491;45.900;6.346;2023-05-21T11:52:09;93288.13;;;23.98;36.47
65359;BME280;52491;45.900;6.346;2023-05-21T11:54:43;93291.34;;;23.95;36.70
65359;BME280;52491;45.900;6.346;2023-05-21T11:57:15;93284.91;;;24.01;36.78
65359;BME280;52491;45.900;6.346;2023-05-21T11:59:46;93292.59;;;24.02;36.83
65359;BME280;52491;45.900;6.346;2023-05-21T12:02:16;93285.94;;;24.05;36.75
65359;BME280;52491;45.900;6.346;2023-05-21T12:04:44;93287.03;;;24.04;36.60
65359;BME280;52491;45.900;6.346;2023-05-21T12:07:10;93286.72;;;24.05;36.78
65359;BME280;52491;45.900;6.346;2023-05-21T12:09:50;93281.94;;;24.07;36.55
65359;BME280;52491;45.900;6.346;2023-05-21T12:12:23;93275.28;;;24.05;36.82
65359;BME280;52491;45.900;6.346;2023-05-21T12:14:50;93272.63;;;24.05;36.75
65359;BME280;52491;45.900;6.346;2023-05-21T12:17:20;93275.00;;;24.11;36.48
65359;BME280;52491;45.900;6.346;2023-05-21T12:19:48;93277.41;;;24.08;36.48
65359;BME280;52491;45.900;6.346;2023-05-21T12:22:15;93274.22;;;24.06;36.50
65359;BME280;52491;45.900;6.346;2023-05-21T12:24:41;93274.72;;;24.08;36.72
65359;BME280;52491;45.900;6.346;2023-05-21T12:27:08;93275.53;;;24.08;36.30
65359;BME280;52491;45.900;6.346;2023-05-21T12:29:44;93280.06;;;24.08;36.26
65359;BME280;52491;45.900;6.346;2023-05-21T12:32:13;93272.06;;;24.08;36.82
65359;BME280;52491;45.900;6.346;2023-05-21T12:34:50;93271.81;;;24.09;36.65
65359;BME280;52491;45.900;6.346;2023-05-21T12:37:27;93272.84;;;24.08;36.70
65359;BME280;52491;45.900;6.346;2023-05-21T12:40:00;93265.94;;;24.07;36.64
65359;BME280;52491;45.900;6.346;2023-05-21T12:42:30;93262.50;;;24.07;36.71
65359;BME280;52491;45.900;6.346;2023-05-21T12:45:00;93275.81;;;24.07;36.43
65359;BME280;52491;45.900;6.346;2023-05-21T12:47:26;93274.72;;;24.08;36.63
65359;BME280;52491;45.900;6.346;2023-05-21T12:49:55;93280.06;;;24.08;37.06
65359;BME280;52491;45.900;6.346;2023-05-21T12:52:22;93268.34;;;24.09;36.52
65359;BME280;52491;45.900;6.346;2023-05-21T12:54:50;93271.81;;;24.09;36.59
65359;BME280;52491;45.900;6.346;2023-05-21T12:57:18;93271.81;;;24.09;36.90
65359;BME280;52491;45.900;6.346;2023-05-21T12:59:51;93271.50;;;24.11;36.60
65359;BME280;52491;45.900;6.346;2023-05-21T13:02:28;93270.47;;;24.12;36.85
65359;BME280;52491;45.900;6.346;2023-05-21T13:05:06;93266.72;;;24.13;36.72
65359;BME280;52491;45.900;6.346;2023-05-21T13:07:34;93268.84;;;24.11;36.86
65359;BME280;52491;45.900;6.346;2023-05-21T13:10:00;93276.59;;;24.12;36.97
65359;BME280;52491;45.900;6.346;2023-05-21T13:12:28;93272.84;;;24.13;36.90
65359;BME280;52491;45.900;6.346;2023-05-21T13:14:56;93273.63;;;24.14;36.85
65359;BME280;52491;45.900;6.346;2023-05-21T13:17:24;93277.13;;;24.15;37.19
65359;BME280;52491;45.900;6.346;2023-05-21T13:20:09;93276.81;;;24.16;36.89
65359;BME280;52491;45.900;6.346;2023-05-21T13:22:43;93277.13;;;24.15;37.09
65359;BME280;52491;45.900;6.346;2023-05-21T13:25:15;93278.97;;;24.14;37.02
65359;BME280;52491;45.900;6.346;2023-05-21T13:27:41;93288.03;;;24.13;37.03